CGP weather

Public forecast

Using degrees Celsius for public forecast. Weather courtesy of forecast.io.

Current aviation weather report (METAR) for Shah Amanat International Airport

Retrieved 2020/08/09 13:00 UTC (19 minutes ago):

VGEG 091300Z 18005KT 5000 SCT018 FEW030CB BKN100 29/26 Q1001 NOSIG

Aviation forecast (TAF) for Shah Amanat International Airport

Retrieved 2020/08/09 12:00 UTC (1 hour ago):

TAF TAF VGEG 091100Z 0912/1018 19010KT 5000 SCT015 BKN100 BECMG 0920/0922 17005KT 5000 SCT018 SCT100 BECMG 1002/1004 16005KT 4500 SCT015 BKN100 BECMG 1014/1016 21012KT 5000 SCT015 BKN100